sensor_id;sensor_type;location;lat;lon;timestamp;P1;durP1;ratioP1;P2;durP2;ratioP2
5414;SDS011;2730;51.512;7.504;2023-06-19T00:01:02;5.73;;;4.37;;
5414;SDS011;2730;51.512;7.504;2023-06-19T00:03:29;7.90;;;4.60;;
5414;SDS011;2730;51.512;7.504;2023-06-19T00:05:56;4.90;;;4.20;;
5414;SDS011;2730;51.512;7.504;2023-06-19T00:08:22;5.20;;;4.80;;
5414;SDS011;2730;51.512;7.504;2023-06-19T00:10:49;6.17;;;4.70;;
5414;SDS011;2730;51.512;7.504;2023-06-19T00:13:16;4.43;;;4.10;;
5414;SDS011;2730;51.512;7.504;2023-06-19T00:15:45;5.00;;;4.60;;
5414;SDS011;2730;51.512;7.504;2023-06-19T00:18:12;5.30;;;4.57;;
5414;SDS011;2730;51.512;7.504;2023-06-19T00:20:41;5.40;;;4.63;;
5414;SDS011;2730;51.512;7.504;2023-06-19T00:23:11;6.40;;;4.20;;
5414;SDS011;2730;51.512;7.504;2023-06-19T00:25:39;4.93;;;4.43;;
5414;SDS011;2730;51.512;7.504;2023-06-19T00:28:06;7.83;;;4.30;;
5414;SDS011;2730;51.512;7.504;2023-06-19T00:30:36;8.00;;;4.33;;
5414;SDS011;2730;51.512;7.504;2023-06-19T00:33:13;6.80;;;4.77;;
5414;SDS011;2730;51.512;7.504;2023-06-19T00:35:40;20.70;;;5.87;;
5414;SDS011;2730;51.512;7.504;2023-06-19T00:38:07;13.03;;;4.90;;
5414;SDS011;2730;51.512;7.504;2023-06-19T00:40:34;9.33;;;5.50;;
5414;SDS011;2730;51.512;7.504;2023-06-19T00:43:01;5.07;;;4.60;;
5414;SDS011;2730;51.512;7.504;2023-06-19T00:45:29;4.63;;;4.23;;
5414;SDS011;2730;51.512;7.504;2023-06-19T00:47:56;5.10;;;4.60;;
5414;SDS011;2730;51.512;7.504;2023-06-19T00:50:25;4.63;;;4.23;;
5414;SDS011;2730;51.512;7.504;2023-06-19T00:52:53;6.80;;;4.87;;
5414;SDS011;2730;51.512;7.504;2023-06-19T00:55:20;5.43;;;4.03;;
5414;SDS011;2730;51.512;7.504;2023-06-19T00:57:47;6.07;;;5.20;;
5414;SDS011;2730;51.512;7.504;2023-06-19T01:00:15;5.90;;;4.80;;
5414;SDS011;2730;51.512;7.504;2023-06-19T01:02:43;5.90;;;4.37;;
5414;SDS011;2730;51.512;7.504;2023-06-19T01:05:10;5.70;;;5.10;;
5414;SDS011;2730;51.512;7.504;2023-06-19T01:07:40;6.20;;;4.77;;
5414;SDS011;2730;51.512;7.504;2023-06-19T01:10:12;10.03;;;4.80;;
5414;SDS011;2730;51.512;7.504;2023-06-19T01:12:44;7.60;;;4.40;;
5414;SDS011;2730;51.512;7.504;2023-06-19T01:15:17;15.27;;;5.27;;
5414;SDS011;2730;51.512;7.504;2023-06-19T01:17:44;5.80;;;5.00;;
5414;SDS011;2730;51.512;7.504;2023-06-19T01:20:12;8.70;;;5.00;;
5414;SDS011;2730;51.512;7.504;2023-06-19T01:22:41;5.90;;;4.57;;
5414;SDS011;2730;51.512;7.504;2023-06-19T01:25:09;5.40;;;4.90;;
5414;SDS011;2730;51.512;7.504;2023-06-19T01:27:36;5.63;;;4.67;;
5414;SDS011;2730;51.512;7.504;2023-06-19T01:30:04;6.07;;;4.47;;
5414;SDS011;2730;51.512;7.504;2023-06-19T01:32:34;4.50;;;4.10;;
5414;SDS011;2730;51.512;7.504;2023-06-19T01:35:08;5.80;;;4.40;;
5414;SDS011;2730;51.512;7.504;2023-06-19T01:37:36;4.50;;;4.10;;
5414;SDS011;2730;51.512;7.504;2023-06-19T01:40:06;5.00;;;4.60;;
5414;SDS011;2730;51.512;7.504;2023-06-19T01:42:36;4.30;;;4.00;;
5414;SDS011;2730;51.512;7.504;2023-06-19T01:45:06;4.90;;;4.50;;
5414;SDS011;2730;51.512;7.504;2023-06-19T01:47:34;6.70;;;4.97;;
5414;SDS011;2730;51.512;7.504;2023-06-19T01:50:01;4.57;;;4.07;;
5414;SDS011;2730;51.512;7.504;2023-06-19T01:52:28;5.50;;;4.40;;
5414;SDS011;2730;51.512;7.504;2023-06-19T01:54:54;5.03;;;4.40;;
5414;SDS011;2730;51.512;7.504;2023-06-19T01:57:22;4.83;;;4.43;;
5414;SDS011;2730;51.512;7.504;2023-06-19T01:59:49;5.00;;;4.60;;
5414;SDS011;2730;51.512;7.504;2023-06-19T02:02:16;6.37;;;5.40;;
5414;SDS011;2730;51.512;7.504;2023-06-19T02:04:43;5.30;;;4.80;;
5414;SDS011;2730;51.512;7.504;2023-06-19T02:07:10;7.53;;;5.13;;
5414;SDS011;2730;51.512;7.504;2023-06-19T02:09:37;5.53;;;4.90;;
5414;SDS011;2730;51.512;7.504;2023-06-19T02:12:04;6.93;;;4.27;;
5414;SDS011;2730;51.512;7.504;2023-06-19T02:14:33;5.53;;;5.03;;
5414;SDS011;2730;51.512;7.504;2023-06-19T02:17:00;5.20;;;4.80;;
5414;SDS011;2730;51.512;7.504;2023-06-19T02:19:27;6.33;;;4.30;;
5414;SDS011;2730;51.512;7.504;2023-06-19T02:21:53;5.90;;;4.90;;
5414;SDS011;2730;51.512;7.504;2023-06-19T02:24:20;5.67;;;4.50;;
5414;SDS011;2730;51.512;7.504;2023-06-19T02:26:47;5.27;;;4.87;;
5414;SDS011;2730;51.512;7.504;2023-06-19T02:29:14;6.37;;;5.03;;
5414;SDS011;2730;51.512;7.504;2023-06-19T02:31:42;5.33;;;4.83;;
5414;SDS011;2730;51.512;7.504;2023-06-19T02:34:08;5.60;;;4.57;;
5414;SDS011;2730;51.512;7.504;2023-06-19T02:36:35;5.10;;;4.70;;
5414;SDS011;2730;51.512;7.504;2023-06-19T02:39:03;9.03;;;5.47;;
5414;SDS011;2730;51.512;7.504;2023-06-19T02:41:30;5.10;;;4.60;;
5414;SDS011;2730;51.512;7.504;2023-06-19T02:43:57;5.87;;;5.30;;
5414;SDS011;2730;51.512;7.504;2023-06-19T02:46:24;7.13;;;5.97;;
5414;SDS011;2730;51.512;7.504;2023-06-19T02:48:52;6.13;;;5.30;;
5414;SDS011;2730;51.512;7.504;2023-06-19T02:51:19;5.23;;;4.73;;
5414;SDS011;2730;51.512;7.504;2023-06-19T02:53:45;8.90;;;5.17;;
5414;SDS011;2730;51.512;7.504;2023-06-19T02:56:12;5.97;;;4.60;;
5414;SDS011;2730;51.512;7.504;2023-06-19T02:58:39;6.00;;;5.23;;
5414;SDS011;2730;51.512;7.504;2023-06-19T03:01:06;6.03;;;5.47;;
5414;SDS011;2730;51.512;7.504;2023-06-19T03:03:33;5.47;;;4.93;;
5414;SDS011;2730;51.512;7.504;2023-06-19T03:06:04;6.07;;;5.10;;
5414;SDS011;2730;51.512;7.504;2023-06-19T03:08:32;5.93;;;5.30;;
5414;SDS011;2730;51.512;7.504;2023-06-19T03:10:59;5.90;;;5.37;;
5414;SDS011;2730;51.512;7.504;2023-06-19T03:13:29;6.57;;;5.03;;
5414;SDS011;2730;51.512;7.504;2023-06-19T03:15:56;7.20;;;5.80;;
5414;SDS011;2730;51.512;7.504;2023-06-19T03:18:22;6.17;;;5.57;;
5414;SDS011;2730;51.512;7.504;2023-06-19T03:20:49;6.00;;;5.20;;
5414;SDS011;2730;51.512;7.504;2023-06-19T03:23:17;4.83;;;4.50;;
5414;SDS011;2730;51.512;7.504;2023-06-19T03:25:44;7.17;;;5.03;;
5414;SDS011;2730;51.512;7.504;2023-06-19T03:28:10;5.80;;;5.30;;
5414;SDS011;2730;51.512;7.504;2023-06-19T03:30:37;6.10;;;5.20;;
5414;SDS011;2730;51.512;7.504;2023-06-19T03:33:04;9.80;;;5.67;;
5414;SDS011;2730;51.512;7.504;2023-06-19T03:35:31;5.33;;;4.83;;
5414;SDS011;2730;51.512;7.504;2023-06-19T03:37:57;5.50;;;4.73;;
5414;SDS011;2730;51.512;7.504;2023-06-19T03:40:25;4.90;;;4.50;;
5414;SDS011;2730;51.512;7.504;2023-06-19T03:42:53;4.93;;;4.53;;
5414;SDS011;2730;51.512;7.504;2023-06-19T03:45:19;11.47;;;4.63;;
5414;SDS011;2730;51.512;7.504;2023-06-19T03:47:46;5.67;;;4.63;;
5414;SDS011;2730;51.512;7.504;2023-06-19T03:50:13;4.80;;;4.37;;
5414;SDS011;2730;51.512;7.504;2023-06-19T03:52:39;5.33;;;4.23;;
5414;SDS011;2730;51.512;7.504;2023-06-19T03:55:06;5.10;;;4.63;;
5414;SDS011;2730;51.512;7.504;2023-06-19T03:57:35;4.97;;;3.47;;
5414;SDS011;2730;51.512;7.504;2023-06-19T04:00:02;3.63;;;3.30;;
5414;SDS011;2730;51.512;7.504;2023-06-19T04:02:32;4.83;;;3.30;;
5414;SDS011;2730;51.512;7.504;2023-06-19T04:04:59;7.43;;;3.30;;
5414;SDS011;2730;51.512;7.504;2023-06-19T04:07:26;3.97;;;3.13;;
5414;SDS011;2730;51.512;7.504;2023-06-19T04:09:53;3.30;;;3.00;;
5414;SDS011;2730;51.512;7.504;2023-06-19T04:12:20;3.20;;;3.00;;
5414;SDS011;2730;51.512;7.504;2023-06-19T04:14:48;9.10;;;3.33;;
5414;SDS011;2730;51.512;7.504;2023-06-19T04:17:15;3.27;;;3.07;;
5414;SDS011;2730;51.512;7.504;2023-06-19T04:19:41;3.87;;;3.33;;
5414;SDS011;2730;51.512;7.504;2023-06-19T04:22:08;3.90;;;2.90;;
5414;SDS011;2730;51.512;7.504;2023-06-19T04:24:35;3.33;;;3.03;;
5414;SDS011;2730;51.512;7.504;2023-06-19T04:27:02;4.77;;;4.07;;
5414;SDS011;2730;51.512;7.504;2023-06-19T04:29:29;4.03;;;3.67;;
5414;SDS011;2730;51.512;7.504;2023-06-19T04:31:58;3.33;;;3.00;;
5414;SDS011;2730;51.512;7.504;2023-06-19T04:34:25;4.07;;;3.47;;
5414;SDS011;2730;51.512;7.504;2023-06-19T04:36:52;8.90;;;3.50;;
5414;SDS011;2730;51.512;7.504;2023-06-19T04:39:18;10.80;;;3.63;;
5414;SDS011;2730;51.512;7.504;2023-06-19T04:41:46;3.53;;;3.23;;
5414;SDS011;2730;51.512;7.504;2023-06-19T04:44:12;3.43;;;3.13;;
5414;SDS011;2730;51.512;7.504;2023-06-19T04:46:40;3.73;;;3.43;;
5414;SDS011;2730;51.512;7.504;2023-06-19T04:49:08;3.90;;;3.50;;
5414;SDS011;2730;51.512;7.504;2023-06-19T04:51:35;3.20;;;3.00;;
5414;SDS011;2730;51.512;7.504;2023-06-19T04:54:01;3.53;;;3.23;;
5414;SDS011;2730;51.512;7.504;2023-06-19T04:56:28;3.90;;;3.50;;
5414;SDS011;2730;51.512;7.504;2023-06-19T04:58:55;3.43;;;3.13;;
5414;SDS011;2730;51.512;7.504;2023-06-19T05:01:24;5.03;;;3.77;;
5414;SDS011;2730;51.512;7.504;2023-06-19T05:03:54;3.03;;;2.73;;
5414;SDS011;2730;51.512;7.504;2023-06-19T05:06:23;3.87;;;3.57;;
5414;SDS011;2730;51.512;7.504;2023-06-19T05:08:50;3.23;;;3.03;;
5414;SDS011;2730;51.512;7.504;2023-06-19T05:11:17;4.10;;;3.03;;
5414;SDS011;2730;51.512;7.504;2023-06-19T05:13:44;3.60;;;3.30;;
5414;SDS011;2730;51.512;7.504;2023-06-19T05:16:11;3.60;;;3.20;;
5414;SDS011;2730;51.512;7.504;2023-06-19T05:18:41;4.20;;;3.20;;
5414;SDS011;2730;51.512;7.504;2023-06-19T05:21:08;3.53;;;3.33;;
5414;SDS011;2730;51.512;7.504;2023-06-19T05:23:36;3.17;;;2.87;;
5414;SDS011;2730;51.512;7.504;2023-06-19T05:26:03;4.20;;;3.63;;
5414;SDS011;2730;51.512;7.504;2023-06-19T05:28:30;3.10;;;2.80;;
5414;SDS011;2730;51.512;7.504;2023-06-19T05:30:56;3.83;;;3.00;;
5414;SDS011;2730;51.512;7.504;2023-06-19T05:33:23;3.47;;;3.17;;
5414;SDS011;2730;51.512;7.504;2023-06-19T05:35:50;3.80;;;3.00;;
5414;SDS011;2730;51.512;7.504;2023-06-19T05:38:19;8.83;;;3.17;;
5414;SDS011;2730;51.512;7.504;2023-06-19T05:40:47;3.20;;;3.00;;
5414;SDS011;2730;51.512;7.504;2023-06-19T05:43:13;3.03;;;2.83;;
5414;SDS011;2730;51.512;7.504;2023-06-19T05:45:40;6.70;;;2.60;;
5414;SDS011;2730;51.512;7.504;2023-06-19T05:48:07;4.90;;;3.07;;
5414;SDS011;2730;51.512;7.504;2023-06-19T05:50:34;5.33;;;2.37;;
5414;SDS011;2730;51.512;7.504;2023-06-19T05:53:00;6.93;;;2.87;;
5414;SDS011;2730;51.512;7.504;2023-06-19T05:55:27;3.33;;;2.23;;
5414;SDS011;2730;51.512;7.504;2023-06-19T05:57:56;3.13;;;2.20;;
5414;SDS011;2730;51.512;7.504;2023-06-19T06:00:23;3.43;;;2.20;;
5414;SDS011;2730;51.512;7.504;2023-06-19T06:02:50;2.63;;;2.33;;
5414;SDS011;2730;51.512;7.504;2023-06-19T06:05:17;2.60;;;2.40;;
5414;SDS011;2730;51.512;7.504;2023-06-19T06:07:45;3.90;;;2.33;;
5414;SDS011;2730;51.512;7.504;2023-06-19T06:10:12;4.03;;;2.83;;
5414;SDS011;2730;51.512;7.504;2023-06-19T06:12:39;2.10;;;2.00;;
5414;SDS011;2730;51.512;7.504;2023-06-19T06:15:07;1.90;;;1.80;;
5414;SDS011;2730;51.512;7.504;2023-06-19T06:17:34;5.73;;;2.03;;
5414;SDS011;2730;51.512;7.504;2023-06-19T06:20:01;2.00;;;1.90;;
5414;SDS011;2730;51.512;7.504;2023-06-19T06:22:31;2.33;;;2.13;;
5414;SDS011;2730;51.512;7.504;2023-06-19T06:24:58;2.47;;;2.27;;
5414;SDS011;2730;51.512;7.504;2023-06-19T06:27:25;2.83;;;2.07;;
5414;SDS011;2730;51.512;7.504;2023-06-19T06:29:52;2.33;;;1.97;;
5414;SDS011;2730;51.512;7.504;2023-06-19T06:32:20;2.20;;;2.00;;
5414;SDS011;2730;51.512;7.504;2023-06-19T06:34:47;3.20;;;2.10;;
5414;SDS011;2730;51.512;7.504;2023-06-19T06:37:13;2.47;;;2.27;;
5414;SDS011;2730;51.512;7.504;2023-06-19T06:39:42;2.57;;;2.37;;
5414;SDS011;2730;51.512;7.504;2023-06-19T06:42:09;3.87;;;1.83;;
5414;SDS011;2730;51.512;7.504;2023-06-19T06:44:35;1.80;;;1.70;;
5414;SDS011;2730;51.512;7.504;2023-06-19T06:47:03;3.70;;;1.93;;
5414;SDS011;2730;51.512;7.504;2023-06-19T06:49:31;2.60;;;2.00;;
5414;SDS011;2730;51.512;7.504;2023-06-19T06:51:58;2.20;;;2.00;;
5414;SDS011;2730;51.512;7.504;2023-06-19T06:54:25;2.47;;;2.33;;
5414;SDS011;2730;51.512;7.504;2023-06-19T06:56:52;1.97;;;1.77;;
5414;SDS011;2730;51.512;7.504;2023-06-19T06:59:21;2.10;;;2.00;;
5414;SDS011;2730;51.512;7.504;2023-06-19T07:01:48;2.27;;;2.07;;
5414;SDS011;2730;51.512;7.504;2023-06-19T07:04:14;3.80;;;2.37;;
5414;SDS011;2730;51.512;7.504;2023-06-19T07:06:42;2.70;;;2.50;;
5414;SDS011;2730;51.512;7.504;2023-06-19T07:09:09;2.20;;;2.00;;
5414;SDS011;2730;51.512;7.504;2023-06-19T07:11:36;2.30;;;2.10;;
5414;SDS011;2730;51.512;7.504;2023-06-19T07:14:03;2.80;;;2.00;;
5414;SDS011;2730;51.512;7.504;2023-06-19T07:16:29;4.63;;;2.27;;
5414;SDS011;2730;51.512;7.504;2023-06-19T07:18:56;2.00;;;1.90;;
5414;SDS011;2730;51.512;7.504;2023-06-19T07:21:23;2.17;;;2.07;;
5414;SDS011;2730;51.512;7.504;2023-06-19T07:23:51;2.20;;;1.77;;
5414;SDS011;2730;51.512;7.504;2023-06-19T07:26:18;2.50;;;1.80;;
5414;SDS011;2730;51.512;7.504;2023-06-19T07:28:45;2.80;;;1.90;;
5414;SDS011;2730;51.512;7.504;2023-06-19T07:31:11;2.60;;;2.17;;
5414;SDS011;2730;51.512;7.504;2023-06-19T07:33:38;2.20;;;2.00;;
5414;SDS011;2730;51.512;7.504;2023-06-19T07:36:05;5.13;;;2.10;;
5414;SDS011;2730;51.512;7.504;2023-06-19T07:38:33;2.53;;;2.20;;
5414;SDS011;2730;51.512;7.504;2023-06-19T07:41:01;2.10;;;1.90;;
5414;SDS011;2730;51.512;7.504;2023-06-19T07:43:28;2.17;;;2.07;;
5414;SDS011;2730;51.512;7.504;2023-06-19T07:45:54;2.60;;;2.40;;
5414;SDS011;2730;51.512;7.504;2023-06-19T07:48:21;4.10;;;2.13;;
5414;SDS011;2730;51.512;7.504;2023-06-19T07:50:48;2.23;;;2.07;;
5414;SDS011;2730;51.512;7.504;2023-06-19T07:53:15;4.13;;;2.33;;
5414;SDS011;2730;51.512;7.504;2023-06-19T07:55:42;3.30;;;2.43;;
5414;SDS011;2730;51.512;7.504;2023-06-19T07:58:10;3.20;;;2.03;;
5414;SDS011;2730;51.512;7.504;2023-06-19T08:00:37;2.23;;;2.03;;
5414;SDS011;2730;51.512;7.504;2023-06-19T08:03:04;2.60;;;2.10;;
5414;SDS011;2730;51.512;7.504;2023-06-19T08:05:30;1.97;;;1.87;;
5414;SDS011;2730;51.512;7.504;2023-06-19T08:07:58;2.03;;;1.83;;
5414;SDS011;2730;51.512;7.504;2023-06-19T08:10:26;2.80;;;2.07;;
5414;SDS011;2730;51.512;7.504;2023-06-19T08:12:53;2.57;;;2.17;;
5414;SDS011;2730;51.512;7.504;2023-06-19T08:15:21;5.43;;;2.20;;
5414;SDS011;2730;51.512;7.504;2023-06-19T08:17:48;2.13;;;1.93;;
5414;SDS011;2730;51.512;7.504;2023-06-19T08:20:15;2.27;;;2.17;;
5414;SDS011;2730;51.512;7.504;2023-06-19T08:22:41;2.13;;;2.03;;
5414;SDS011;2730;51.512;7.504;2023-06-19T08:25:08;2.60;;;2.38;;
5414;SDS011;2730;51.512;7.504;2023-06-19T08:27:35;1.80;;;1.70;;
5414;SDS011;2730;51.512;7.504;2023-06-19T08:30:02;2.50;;;2.23;;
5414;SDS011;2730;51.512;7.504;2023-06-19T08:32:30;2.13;;;1.93;;
5414;SDS011;2730;51.512;7.504;2023-06-19T08:34:58;3.50;;;2.10;;
5414;SDS011;2730;51.512;7.504;2023-06-19T08:37:24;2.40;;;2.20;;
5414;SDS011;2730;51.512;7.504;2023-06-19T08:39:52;4.20;;;1.90;;
5414;SDS011;2730;51.512;7.504;2023-06-19T08:42:20;3.83;;;2.10;;
5414;SDS011;2730;51.512;7.504;2023-06-19T08:44:48;2.20;;;2.00;;
5414;SDS011;2730;51.512;7.504;2023-06-19T08:47:15;6.00;;;2.33;;
5414;SDS011;2730;51.512;7.504;2023-06-19T08:49:43;2.00;;;1.90;;
5414;SDS011;2730;51.512;7.504;2023-06-19T08:52:10;4.90;;;2.07;;
5414;SDS011;2730;51.512;7.504;2023-06-19T08:54:37;4.33;;;2.30;;
5414;SDS011;2730;51.512;7.504;2023-06-19T08:57:08;3.30;;;2.37;;
5414;SDS011;2730;51.512;7.504;2023-06-19T08:59:35;2.70;;;2.30;;
5414;SDS011;2730;51.512;7.504;2023-06-19T09:02:02;5.10;;;2.20;;
5414;SDS011;2730;51.512;7.504;2023-06-19T09:04:29;2.10;;;2.00;;
5414;SDS011;2730;51.512;7.504;2023-06-19T09:06:58;3.93;;;2.47;;
5414;SDS011;2730;51.512;7.504;2023-06-19T09:09:27;3.23;;;2.60;;
5414;SDS011;2730;51.512;7.504;2023-06-19T09:11:56;3.43;;;2.30;;
5414;SDS011;2730;51.512;7.504;2023-06-19T09:14:30;4.77;;;2.10;;
5414;SDS011;2730;51.512;7.504;2023-06-19T09:16:58;3.13;;;2.20;;
5414;SDS011;2730;51.512;7.504;2023-06-19T09:19:25;5.17;;;2.43;;
5414;SDS011;2730;51.512;7.504;2023-06-19T09:21:51;3.17;;;2.57;;
5414;SDS011;2730;51.512;7.504;2023-06-19T09:24:19;6.00;;;2.40;;
5414;SDS011;2730;51.512;7.504;2023-06-19T09:26:46;2.40;;;2.30;;
5414;SDS011;2730;51.512;7.504;2023-06-19T09:29:13;3.47;;;2.47;;
5414;SDS011;2730;51.512;7.504;2023-06-19T09:31:43;4.60;;;2.40;;
5414;SDS011;2730;51.512;7.504;2023-06-19T09:34:09;4.30;;;2.50;;
5414;SDS011;2730;51.512;7.504;2023-06-19T09:36:36;3.53;;;2.87;;
5414;SDS011;2730;51.512;7.504;2023-06-19T09:39:04;4.07;;;2.43;;
5414;SDS011;2730;51.512;7.504;2023-06-19T09:41:32;2.43;;;2.23;;
5414;SDS011;2730;51.512;7.504;2023-06-19T09:44:01;8.07;;;2.70;;
5414;SDS011;2730;51.512;7.504;2023-06-19T09:46:30;2.17;;;2.07;;
5414;SDS011;2730;51.512;7.504;2023-06-19T09:48:58;3.43;;;2.07;;
5414;SDS011;2730;51.512;7.504;2023-06-19T09:51:29;4.70;;;1.80;;
5414;SDS011;2730;51.512;7.504;2023-06-19T09:53:58;1.87;;;1.60;;
5414;SDS011;2730;51.512;7.504;2023-06-19T09:56:28;1.53;;;1.43;;
5414;SDS011;2730;51.512;7.504;2023-06-19T09:58:57;2.53;;;1.90;;
5414;SDS011;2730;51.512;7.504;2023-06-19T10:01:26;2.40;;;1.83;;
5414;SDS011;2730;51.512;7.504;2023-06-19T10:04:01;1.80;;;1.60;;
5414;SDS011;2730;51.512;7.504;2023-06-19T10:06:29;1.77;;;1.67;;
5414;SDS011;2730;51.512;7.504;2023-06-19T10:09:04;1.93;;;1.83;;
5414;SDS011;2730;51.512;7.504;2023-06-19T10:11:43;5.40;;;2.03;;
5414;SDS011;2730;51.512;7.504;2023-06-19T10:14:13;1.90;;;1.80;;
5414;SDS011;2730;51.512;7.504;2023-06-19T10:16:43;2.37;;;2.27;;
5414;SDS011;2730;51.512;7.504;2023-06-19T10:19:16;2.50;;;2.30;;
5414;SDS011;2730;51.512;7.504;2023-06-19T10:21:46;3.03;;;2.20;;
5414;SDS011;2730;51.512;7.504;2023-06-19T10:24:15;2.63;;;2.43;;
5414;SDS011;2730;51.512;7.504;2023-06-19T10:26:54;2.30;;;2.20;;
5414;SDS011;2730;51.512;7.504;2023-06-19T10:29:24;2.83;;;2.63;;
5414;SDS011;2730;51.512;7.504;2023-06-19T10:31:53;2.80;;;2.40;;
5414;SDS011;2730;51.512;7.504;2023-06-19T10:34:21;4.20;;;2.47;;
5414;SDS011;2730;51.512;7.504;2023-06-19T10:36:48;3.57;;;2.27;;
5414;SDS011;2730;51.512;7.504;2023-06-19T10:39:15;6.30;;;2.10;;
5414;SDS011;2730;51.512;7.504;2023-06-19T10:41:42;2.77;;;2.57;;
5414;SDS011;2730;51.512;7.504;2023-06-19T10:44:09;2.50;;;2.30;;
5414;SDS011;2730;51.512;7.504;2023-06-19T10:46:38;9.43;;;2.80;;
5414;SDS011;2730;51.512;7.504;2023-06-19T10:49:06;14.50;;;10.73;;
5414;SDS011;2730;51.512;7.504;2023-06-19T10:51:35;4.50;;;2.90;;
5414;SDS011;2730;51.512;7.504;2023-06-19T10:54:03;9.77;;;2.50;;
5414;SDS011;2730;51.512;7.504;2023-06-19T10:56:31;5.93;;;2.87;;
5414;SDS011;2730;51.512;7.504;2023-06-19T10:58:58;2.70;;;2.50;;
5414;SDS011;2730;51.512;7.504;2023-06-19T11:01:33;2.80;;;2.60;;
5414;SDS011;2730;51.512;7.504;2023-06-19T11:04:03;2.67;;;2.47;;
5414;SDS011;2730;51.512;7.504;2023-06-19T11:06:31;5.30;;;3.27;;
5414;SDS011;2730;51.512;7.504;2023-06-19T11:08:58;3.60;;;3.40;;
5414;SDS011;2730;51.512;7.504;2023-06-19T11:11:34;3.63;;;2.77;;
5414;SDS011;2730;51.512;7.504;2023-06-19T11:14:01;3.87;;;3.50;;
5414;SDS011;2730;51.512;7.504;2023-06-19T11:16:28;6.47;;;3.30;;
5414;SDS011;2730;51.512;7.504;2023-06-19T11:18:55;3.50;;;3.20;;
5414;SDS011;2730;51.512;7.504;2023-06-19T11:21:30;5.43;;;3.20;;
5414;SDS011;2730;51.512;7.504;2023-06-19T11:23:58;5.00;;;3.00;;
5414;SDS011;2730;51.512;7.504;2023-06-19T11:26:25;3.20;;;2.90;;
5414;SDS011;2730;51.512;7.504;2023-06-19T11:28:52;2.93;;;2.67;;
5414;SDS011;2730;51.512;7.504;2023-06-19T11:31:27;2.87;;;2.50;;
5414;SDS011;2730;51.512;7.504;2023-06-19T11:33:57;2.80;;;2.50;;
5414;SDS011;2730;51.512;7.504;2023-06-19T11:36:26;3.43;;;2.90;;
5414;SDS011;2730;51.512;7.504;2023-06-19T11:38:56;3.23;;;3.03;;
5414;SDS011;2730;51.512;7.504;2023-06-19T11:41:26;4.17;;;3.23;;
5414;SDS011;2730;51.512;7.504;2023-06-19T11:43:59;6.20;;;3.50;;
5414;SDS011;2730;51.512;7.504;2023-06-19T11:46:30;4.00;;;3.70;;
5414;SDS011;2730;51.512;7.504;2023-06-19T11:49:06;10.13;;;3.17;;
5414;SDS011;2730;51.512;7.504;2023-06-19T11:51:34;4.23;;;2.87;;
5414;SDS011;2730;51.512;7.504;2023-06-19T11:54:04;4.03;;;2.80;;
5414;SDS011;2730;51.512;7.504;2023-06-19T11:56:33;3.10;;;2.80;;
5414;SDS011;2730;51.512;7.504;2023-06-19T11:59:00;3.50;;;3.20;;
5414;SDS011;2730;51.512;7.504;2023-06-19T12:01:27;7.87;;;3.00;;
5414;SDS011;2730;51.512;7.504;2023-06-19T12:03:54;4.80;;;3.67;;
5414;SDS011;2730;51.512;7.504;2023-06-19T12:06:21;3.40;;;3.10;;
5414;SDS011;2730;51.512;7.504;2023-06-19T12:08:48;4.03;;;3.27;;
5414;SDS011;2730;51.512;7.504;2023-06-19T12:11:16;3.03;;;2.83;;
5414;SDS011;2730;51.512;7.504;2023-06-19T12:13:43;3.90;;;3.50;;
5414;SDS011;2730;51.512;7.504;2023-06-19T12:16:10;6.00;;;3.40;;
5414;SDS011;2730;51.512;7.504;2023-06-19T12:18:37;5.13;;;3.30;;
5414;SDS011;2730;51.512;7.504;2023-06-19T12:21:04;3.80;;;3.37;;
5414;SDS011;2730;51.512;7.504;2023-06-19T12:23:30;4.17;;;3.23;;
5414;SDS011;2730;51.512;7.504;2023-06-19T12:25:57;7.20;;;3.47;;
5414;SDS011;2730;51.512;7.504;2023-06-19T12:28:25;2.90;;;2.70;;
5414;SDS011;2730;51.512;7.504;2023-06-19T12:30:52;5.27;;;3.50;;
5414;SDS011;2730;51.512;7.504;2023-06-19T12:33:21;4.43;;;3.67;;
5414;SDS011;2730;51.512;7.504;2023-06-19T12:35:48;4.30;;;3.60;;
5414;SDS011;2730;51.512;7.504;2023-06-19T12:38:15;3.60;;;3.30;;
5414;SDS011;2730;51.512;7.504;2023-06-19T12:40:43;3.40;;;3.20;;
5414;SDS011;2730;51.512;7.504;2023-06-19T12:43:10;6.57;;;3.13;;
5414;SDS011;2730;51.512;7.504;2023-06-19T12:45:38;4.13;;;3.70;;
5414;SDS011;2730;51.512;7.504;2023-06-19T12:48:06;4.20;;;3.57;;
5414;SDS011;2730;51.512;7.504;2023-06-19T12:50:33;3.70;;;3.40;;
5414;SDS011;2730;51.512;7.504;2023-06-19T12:53:00;3.50;;;3.07;;
5414;SDS011;2730;51.512;7.504;2023-06-19T12:55:27;4.97;;;3.30;;
5414;SDS011;2730;51.512;7.504;2023-06-19T12:57:54;5.40;;;3.43;;
5414;SDS011;2730;51.512;7.504;2023-06-19T13:00:20;3.47;;;3.17;;
5414;SDS011;2730;51.512;7.504;2023-06-19T13:02:48;5.73;;;3.30;;
5414;SDS011;2730;51.512;7.504;2023-06-19T13:05:15;3.80;;;2.60;;
5414;SDS011;2730;51.512;7.504;2023-06-19T13:07:42;6.10;;;3.37;;
5414;SDS011;2730;51.512;7.504;2023-06-19T13:10:09;4.00;;;3.20;;
5414;SDS011;2730;51.512;7.504;2023-06-19T13:12:36;4.57;;;3.00;;
5414;SDS011;2730;51.512;7.504;2023-06-19T13:15:03;5.63;;;3.90;;
5414;SDS011;2730;51.512;7.504;2023-06-19T13:17:31;3.30;;;2.93;;
5414;SDS011;2730;51.512;7.504;2023-06-19T13:19:59;4.83;;;3.53;;
5414;SDS011;2730;51.512;7.504;2023-06-19T13:22:25;4.10;;;3.33;;
5414;SDS011;2730;51.512;7.504;2023-06-19T13:24:52;8.30;;;3.50;;
5414;SDS011;2730;51.512;7.504;2023-06-19T13:27:19;4.17;;;3.67;;
5414;SDS011;2730;51.512;7.504;2023-06-19T13:29:46;4.50;;;3.70;;
5414;SDS011;2730;51.512;7.504;2023-06-19T13:32:12;3.60;;;3.20;;
5414;SDS011;2730;51.512;7.504;2023-06-19T13:34:39;3.53;;;3.23;;
5414;SDS011;2730;51.512;7.504;2023-06-19T13:37:07;6.57;;;3.90;;
5414;SDS011;2730;51.512;7.504;2023-06-19T13:39:34;5.53;;;3.57;;
5414;SDS011;2730;51.512;7.504;2023-06-19T13:42:01;3.03;;;2.80;;
5414;SDS011;2730;51.512;7.504;2023-06-19T13:44:28;3.50;;;3.27;;
5414;SDS011;2730;51.512;7.504;2023-06-19T13:46:55;5.10;;;3.33;;
5414;SDS011;2730;51.512;7.504;2023-06-19T13:49:22;3.07;;;2.80;;
5414;SDS011;2730;51.512;7.504;2023-06-19T13:51:48;4.00;;;3.70;;
5414;SDS011;2730;51.512;7.504;2023-06-19T13:54:17;3.67;;;3.30;;
5414;SDS011;2730;51.512;7.504;2023-06-19T13:56:45;5.13;;;3.73;;
5414;SDS011;2730;51.512;7.504;2023-06-19T13:59:12;4.50;;;3.80;;
5414;SDS011;2730;51.512;7.504;2023-06-19T14:01:39;5.17;;;3.23;;
5414;SDS011;2730;51.512;7.504;2023-06-19T14:04:06;3.50;;;3.20;;
5414;SDS011;2730;51.512;7.504;2023-06-19T14:06:33;3.30;;;3.00;;
5414;SDS011;2730;51.512;7.504;2023-06-19T14:09:03;5.23;;;2.63;;
5414;SDS011;2730;51.512;7.504;2023-06-19T14:11:31;4.57;;;3.10;;
5414;SDS011;2730;51.512;7.504;2023-06-19T14:13:58;3.53;;;2.93;;
5414;SDS011;2730;51.512;7.504;2023-06-19T14:16:25;3.30;;;3.10;;
5414;SDS011;2730;51.512;7.504;2023-06-19T14:18:51;3.73;;;2.97;;
5414;SDS011;2730;51.512;7.504;2023-06-19T14:21:18;4.30;;;3.20;;
5414;SDS011;2730;51.512;7.504;2023-06-19T14:23:46;2.83;;;2.63;;
5414;SDS011;2730;51.512;7.504;2023-06-19T14:26:13;4.57;;;3.10;;
5414;SDS011;2730;51.512;7.504;2023-06-19T14:28:41;3.90;;;3.13;;
5414;SDS011;2730;51.512;7.504;2023-06-19T14:31:08;8.60;;;3.63;;
5414;SDS011;2730;51.512;7.504;2023-06-19T14:33:35;3.00;;;2.70;;
5414;SDS011;2730;51.512;7.504;2023-06-19T14:36:02;5.03;;;3.53;;
5414;SDS011;2730;51.512;7.504;2023-06-19T14:38:30;4.03;;;2.83;;
5414;SDS011;2730;51.512;7.504;2023-06-19T14:40:58;3.10;;;2.80;;
5414;SDS011;2730;51.512;7.504;2023-06-19T14:43:25;6.77;;;4.53;;
5414;SDS011;2730;51.512;7.504;2023-06-19T14:45:53;3.30;;;3.00;;
5414;SDS011;2730;51.512;7.504;2023-06-19T14:48:20;3.73;;;3.43;;
5414;SDS011;2730;51.512;7.504;2023-06-19T14:50:47;4.93;;;3.20;;
5414;SDS011;2730;51.512;7.504;2023-06-19T14:53:14;7.90;;;3.40;;
5414;SDS011;2730;51.512;7.504;2023-06-19T14:55:40;4.43;;;3.23;;
5414;SDS011;2730;51.512;7.504;2023-06-19T14:58:10;4.80;;;3.53;;
5414;SDS011;2730;51.512;7.504;2023-06-19T15:00:38;5.23;;;3.63;;
5414;SDS011;2730;51.512;7.504;2023-06-19T15:03:06;3.77;;;3.37;;
5414;SDS011;2730;51.512;7.504;2023-06-19T15:05:32;3.20;;;3.00;;
5414;SDS011;2730;51.512;7.504;2023-06-19T15:07:59;5.43;;;3.03;;
5414;SDS011;2730;51.512;7.504;2023-06-19T15:10:28;5.27;;;2.97;;
5414;SDS011;2730;51.512;7.504;2023-06-19T15:12:55;4.10;;;2.90;;
5414;SDS011;2730;51.512;7.504;2023-06-19T15:15:21;7.50;;;3.70;;
5414;SDS011;2730;51.512;7.504;2023-06-19T15:17:48;5.00;;;2.90;;